Dades meteomassalio
Diari Summary for Marc 7, 2017 Units:  English    Metric   Both
« Previous Day
Next Day »
Diari Semanal Mensual Anual Personalitzat
  Maxima: Minima: Mijana:
Temperatura: TemperatureC °F 8.8 °F 13.4 °F
Rosada: DewpointC °F 3.3 °F 6.2 °F
Humitat: Humidity % 52 % 62 %
Velocitat del vent: WindSpeedKMH mph 18.5 mph 38.7 mph
Racha vent: WindSpeedGustKMH mph - -
Vent:- - NW
Pressio: PressurehPa in 1021.9 in -
Pluja: 0.0 in    
Historical Graphs
 
 
Tabular Data for Marc 7, 2017
Time Temperature Dew Point Pressure Wind Wind Speed Wind Gust Humidity Rainfall Rate (Hourly) solar Conditions
TemperatureC °F DewpointC °F PressurehPa in Calm     Humidity % HourlyPrecipMM in SolarRadiationWatts/m^2 W/m2 Conditions
00:04 10.9 °F 4.4 °F 1024.6 in WNW 18.5 mph 18.5 mph 64 % 0.0 in 0.0 W/m2 CLR
00:06 10.9 °F 4.3 °F 1024.6 in WNW 22.2 mph 22.2 mph 64 % 0.0 in 0.0 W/m2 CLR
00:10 10.8 °F 4.4 °F 1024.6 in WNW 25.9 mph 25.9 mph 65 % 0.0 in 0.0 W/m2 CLR
00:15 10.8 °F 4.4 °F 1024.6 in WNW 29.6 mph 29.6 mph 65 % 0.0 in 0.0 W/m2 CLR
00:18 10.7 °F 4.4 °F 1024.9 in WNW 20.4 mph 20.4 mph 65 % 0.0 in 0.0 W/m2 CLR
00:20 10.7 °F 4.6 °F 1024.6 in WNW 27.8 mph 27.8 mph 66 % 0.0 in 0.0 W/m2 CLR
00:25 10.6 °F 4.5 °F 1024.9 in NW 24.1 mph 24.1 mph 66 % 0.0 in 0.0 W/m2 CLR
00:30 10.6 °F 4.4 °F 1024.9 in WNW 22.2 mph 22.2 mph 66 % 0.0 in 0.0 W/m2 CLR
00:35 10.5 °F 4.4 °F 1024.9 in NW 24.1 mph 24.1 mph 66 % 0.0 in 0.0 W/m2 CLR
00:40 10.4 °F 4.5 °F 1024.6 in NW 25.9 mph 25.9 mph 67 % 0.0 in 0.0 W/m2 CLR
00:45 10.4 °F 4.6 °F 1024.6 in NNW 20.4 mph 20.4 mph 67 % 0.0 in 0.0 W/m2 CLR
00:50 10.5 °F 4.6 °F 1024.6 in WNW 25.9 mph 25.9 mph 67 % 0.0 in 0.0 W/m2 CLR
00:55 10.5 °F 4.6 °F 1024.6 in NW 24.1 mph 24.1 mph 67 % 0.0 in 0.0 W/m2 CLR
01:00 10.5 °F 4.6 °F 1024.6 in NNW 22.2 mph 22.2 mph 67 % 0.0 in 0.0 W/m2 CLR
01:05 10.5 °F 4.6 °F 1024.6 in NW 22.2 mph 22.2 mph 67 % 0.0 in 0.0 W/m2 CLR
01:10 10.4 °F 4.5 °F 1024.6 in NW 20.9 mph 20.9 mph 67 % 0.0 in 0.0 W/m2 CLR
01:15 10.4 °F 4.5 °F 1024.6 in WNW 27.8 mph 27.8 mph 67 % 0.0 in 0.0 W/m2 CLR
01:20 10.4 °F 4.5 °F 1024.6 in WNW 25.9 mph 25.9 mph 67 % 0.0 in 0.0 W/m2 CLR
01:24 10.3 °F 4.4 °F 1024.6 in NW 25.9 mph 25.9 mph 67 % 0.0 in 0.0 W/m2 CLR
01:28 10.3 °F 4.4 °F 1024.6 in NW 25.9 mph 25.9 mph 67 % 0.0 in 0.0 W/m2 CLR
01:32 10.2 °F 4.5 °F 1024.3 in WNW 19.3 mph 20.1 mph 68 % 0.0 in 0.0 W/m2 CLR
01:37 10.2 °F 4.3 °F 1024.6 in WNW 22.2 mph 22.2 mph 67 % 0.0 in 0.0 W/m2 CLR
01:42 10.2 °F 4.4 °F 1024.3 in WNW 31.5 mph 31.5 mph 67 % 0.0 in 0.0 W/m2 CLR
01:47 10.2 °F 4.3 °F 1024.6 in WNW 20.4 mph 20.4 mph 67 % 0.0 in 0.0 W/m2 CLR
01:52 10.2 °F 4.3 °F 1024.3 in NW 31.5 mph 31.5 mph 67 % 0.0 in 0.0 W/m2 CLR
01:53 10.1 °F 4.3 °F 1024.3 in NW 31.5 mph 31.5 mph 67 % 0.0 in 0.0 W/m2 CLR
01:56 10.1 °F 4.3 °F 1024.6 in NW 31.5 mph 31.5 mph 67 % 0.0 in 0.0 W/m2 CLR
02:00 10.1 °F 4.2 °F 1024.6 in NW 31.5 mph 31.5 mph 67 % 0.0 in 0.0 W/m2 CLR
02:02 10.1 °F 4.2 °F 1024.3 in WNW 33.3 mph 33.3 mph 67 % 0.0 in 0.0 W/m2 CLR
02:07 10.1 °F 4.2 °F 1024.3 in WNW 27.8 mph 27.8 mph 67 % 0.0 in 0.0 W/m2 CLR
02:12 10.1 °F 4.3 °F 1024.3 in WNW 29.6 mph 29.6 mph 67 % 0.0 in 0.0 W/m2 CLR
02:17 10.1 °F 4.2 °F 1024.3 in WNW 31.5 mph 31.5 mph 67 % 0.0 in 0.0 W/m2 CLR
02:22 10.1 °F 4.2 °F 1024.3 in WNW 38.9 mph 38.9 mph 67 % 0.0 in 0.0 W/m2 CLR
02:27 10.1 °F 4.3 °F 1024.3 in WNW 37.0 mph 37.0 mph 67 % 0.0 in 0.0 W/m2 CLR
02:32 10.2 °F 4.3 °F 1024.3 in WNW 38.9 mph 38.9 mph 67 % 0.0 in 0.0 W/m2 CLR
02:37 10.1 °F 4.3 °F 1024.3 in NW 35.2 mph 35.2 mph 67 % 0.0 in 0.0 W/m2 CLR
02:42 10.1 °F 4.1 °F 1024.3 in WNW 38.9 mph 38.9 mph 66 % 0.0 in 0.0 W/m2 CLR
02:47 10.1 °F 4.2 °F 1024.3 in WNW 33.3 mph 33.3 mph 67 % 0.0 in 0.0 W/m2 CLR
02:52 10.1 °F 4.0 °F 1024.3 in NW 29.0 mph 29.0 mph 66 % 0.0 in 0.0 W/m2 CLR
02:57 10.1 °F 4.0 °F 1024.6 in WNW 40.7 mph 40.7 mph 66 % 0.0 in 0.0 W/m2 CLR
02:58 10.1 °F 4.1 °F 1024.6 in WNW 40.7 mph 40.7 mph 66 % 0.0 in 0.0 W/m2 CLR
03:03 10.1 °F 4.2 °F 1024.3 in WNW 42.6 mph 42.6 mph 67 % 0.0 in 0.0 W/m2 CLR
03:08 10.1 °F 4.0 °F 1024.3 in WNW 37.0 mph 37.0 mph 66 % 0.0 in 0.0 W/m2 CLR
03:13 10.0 °F 4.2 °F 1023.9 in WNW 31.5 mph 31.5 mph 67 % 0.0 in 0.0 W/m2 CLR
03:18 9.9 °F 4.1 °F 1023.9 in WNW 32.2 mph 32.2 mph 67 % 0.0 in 0.0 W/m2 CLR
03:23 9.9 °F 4.1 °F 1023.9 in WNW 31.5 mph 31.5 mph 67 % 0.0 in 0.0 W/m2 CLR
03:28 9.9 °F 4.3 °F 1023.9 in West 37.0 mph 37.0 mph 68 % 0.0 in 0.0 W/m2 CLR
03:33 9.8 °F 4.2 °F 1023.9 in WNW 31.5 mph 31.5 mph 68 % 0.0 in 0.0 W/m2 CLR
03:38 9.8 °F 4.2 °F 1023.9 in WNW 31.5 mph 31.5 mph 68 % 0.0 in 0.0 W/m2 CLR
03:43 9.7 °F 4.1 °F 1023.9 in WNW 31.5 mph 31.5 mph 68 % 0.0 in 0.0 W/m2 CLR
03:48 9.6 °F 4.2 °F 1023.9 in WNW 33.3 mph 33.3 mph 69 % 0.0 in 0.0 W/m2 CLR
03:53 9.6 °F 4.2 °F 1023.9 in WNW 35.4 mph 35.4 mph 69 % 0.0 in 0.0 W/m2 CLR
03:58 9.7 °F 4.1 °F 1023.6 in WNW 38.9 mph 38.9 mph 68 % 0.0 in 0.0 W/m2 CLR
04:03 9.6 °F 4.0 °F 1023.9 in WNW 37.0 mph 37.0 mph 68 % 0.0 in 0.0 W/m2 CLR
04:08 9.6 °F 4.0 °F 1023.6 in WNW 38.9 mph 38.9 mph 68 % 0.0 in 0.0 W/m2 CLR
04:13 9.7 °F 3.9 °F 1023.6 in WNW 46.3 mph 46.3 mph 67 % 0.0 in 0.0 W/m2 CLR
04:18 9.6 °F 3.8 °F 1023.6 in WNW 40.7 mph 40.7 mph 67 % 0.0 in 0.0 W/m2 CLR
04:23 9.6 °F 3.9 °F 1023.6 in West 38.9 mph 38.9 mph 68 % 0.0 in 0.0 W/m2 CLR
04:28 9.6 °F 3.8 °F 1023.6 in West 35.2 mph 35.2 mph 67 % 0.0 in 0.0 W/m2 CLR
04:33 9.7 °F 3.9 °F 1023.2 in WNW 37.0 mph 37.0 mph 67 % 0.0 in 0.0 W/m2 CLR
04:38 9.6 °F 3.8 °F 1023.2 in WNW 35.2 mph 35.2 mph 67 % 0.0 in 0.0 W/m2 CLR
04:43 9.6 °F 3.8 °F 1023.6 in WNW 40.7 mph 40.7 mph 67 % 0.0 in 0.0 W/m2 CLR
04:48 9.7 °F 3.8 °F 1023.2 in WNW 37.0 mph 37.0 mph 67 % 0.0 in 0.0 W/m2 CLR
04:53 9.6 °F 3.8 °F 1023.2 in WNW 42.6 mph 42.6 mph 67 % 0.0 in 0.0 W/m2 CLR
04:58 9.6 °F 3.7 °F 1023.6 in NW 37.0 mph 37.0 mph 67 % 0.0 in 0.0 W/m2 CLR
05:03 9.6 °F 3.7 °F 1023.6 in WNW 33.3 mph 33.3 mph 67 % 0.0 in 0.0 W/m2 CLR
05:08 9.5 °F 3.7 °F 1023.6 in NW 31.5 mph 31.5 mph 67 % 0.0 in 0.0 W/m2 CLR
05:13 9.4 °F 3.6 °F 1023.2 in West 38.9 mph 38.9 mph 67 % 0.0 in 0.0 W/m2 CLR
05:18 9.4 °F 3.8 °F 1023.6 in WNW 35.2 mph 35.2 mph 68 % 0.0 in 0.0 W/m2 CLR
05:23 9.4 °F 3.8 °F 1023.6 in WNW 38.9 mph 38.9 mph 68 % 0.0 in 0.0 W/m2 CLR
05:28 9.3 °F 3.7 °F 1023.6 in West 35.2 mph 35.2 mph 68 % 0.0 in 0.0 W/m2 CLR
05:33 9.3 °F 3.7 °F 1023.6 in WNW 33.3 mph 33.3 mph 68 % 0.0 in 0.0 W/m2 CLR
05:38 9.2 °F 3.8 °F 1023.6 in WNW 29.6 mph 29.6 mph 69 % 0.0 in 0.0 W/m2 CLR
05:43 9.1 °F 3.7 °F 1023.6 in WNW 37.0 mph 37.0 mph 69 % 0.0 in 0.0 W/m2 CLR
05:48 9.1 °F 3.7 °F 1023.2 in West 25.9 mph 25.9 mph 69 % 0.0 in 0.0 W/m2 CLR
05:53 9.1 °F 3.7 °F 1023.6 in WNW 32.2 mph 32.2 mph 69 % 0.0 in 0.0 W/m2 CLR
05:58 9.2 °F 3.8 °F 1023.6 in WNW 32.2 mph 32.2 mph 69 % 0.0 in 0.0 W/m2 CLR
06:03 9.2 °F 3.8 °F 1023.6 in WNW 37.0 mph 37.0 mph 69 % 0.0 in 0.0 W/m2 CLR
06:08 9.1 °F 3.7 °F 1023.6 in WNW 42.6 mph 42.6 mph 69 % 0.0 in 0.0 W/m2 CLR
06:13 9.1 °F 3.7 °F 1023.9 in WNW 30.6 mph 30.6 mph 69 % 0.0 in 0.0 W/m2 CLR
06:18 9.1 °F 3.7 °F 1023.9 in WNW 32.2 mph 32.2 mph 69 % 0.0 in 0.0 W/m2 CLR
06:23 9.0 °F 3.6 °F 1023.9 in NW 33.8 mph 33.8 mph 69 % 0.0 in 0.0 W/m2 CLR
06:28 8.9 °F 3.5 °F 1024.3 in WNW 25.9 mph 25.9 mph 69 % 0.0 in 0.0 W/m2 CLR
06:33 8.9 °F 3.5 °F 1023.9 in NW 33.3 mph 33.3 mph 69 % 0.0 in 0.0 W/m2 CLR
06:38 8.9 °F 3.3 °F 1024.3 in NW 29.6 mph 29.6 mph 68 % 0.0 in 0.0 W/m2 CLR
06:43 8.9 °F 3.3 °F 1024.3 in WNW 31.5 mph 31.5 mph 68 % 0.0 in 0.0 W/m2 CLR
06:48 8.8 °F 3.4 °F 1024.3 in NW 33.3 mph 33.3 mph 69 % 0.0 in 0.0 W/m2 CLR
06:53 8.8 °F 3.4 °F 1024.3 in WNW 35.2 mph 35.2 mph 69 % 0.0 in 0.0 W/m2 CLR
06:58 8.8 °F 3.4 °F 1024.3 in WNW 31.5 mph 31.5 mph 69 % 0.0 in 0.0 W/m2 CLR
07:04 8.8 °F 3.4 °F 1024.3 in WNW 35.2 mph 35.2 mph 69 % 0.0 in 0.0 W/m2 CLR
07:09 8.8 °F 3.4 °F 1024.3 in WNW 27.8 mph 27.8 mph 69 % 0.0 in 0.0 W/m2 CLR
07:14 8.8 °F 3.4 °F 1024.3 in WNW 33.3 mph 33.3 mph 69 % 0.0 in 0.0 W/m2 CLR
07:19 8.8 °F 3.4 °F 1024.3 in WNW 35.2 mph 35.2 mph 69 % 0.0 in 0.0 W/m2 OVC
07:24 8.8 °F 3.4 °F 1024.3 in WNW 33.3 mph 33.3 mph 69 % 0.0 in 0.0 W/m2 OVC
07:29 8.8 °F 3.4 °F 1024.3 in NW 35.2 mph 35.2 mph 69 % 0.0 in 5.0 W/m2 OVC
07:34 8.8 °F 3.4 °F 1024.3 in NW 37.0 mph 37.0 mph 69 % 0.0 in 11.0 W/m2 BKN
07:39 8.8 °F 3.4 °F 1024.3 in WNW 33.3 mph 33.3 mph 69 % 0.0 in 12.0 W/m2 BKN
07:44 8.8 °F 3.4 °F 1024.3 in West 35.2 mph 35.2 mph 69 % 0.0 in 16.0 W/m2 BKN
07:49 8.9 °F 3.5 °F 1024.3 in NW 33.3 mph 33.3 mph 69 % 0.0 in 19.0 W/m2 BKN
07:54 8.9 °F 3.5 °F 1024.6 in WNW 31.5 mph 31.5 mph 69 % 0.0 in 25.0 W/m2 BKN
07:59 8.9 °F 3.6 °F 1024.3 in West 33.3 mph 33.3 mph 69 % 0.0 in 33.0 W/m2 BKN
08:04 9.1 °F 3.7 °F 1024.3 in WNW 37.0 mph 37.0 mph 69 % 0.0 in 40.0 W/m2 BKN
08:09 9.2 °F 3.8 °F 1024.6 in WNW 31.5 mph 31.5 mph 69 % 0.0 in 56.0 W/m2 SCT
08:14 9.3 °F 3.7 °F 1024.6 in WNW 35.2 mph 35.2 mph 68 % 0.0 in 62.0 W/m2 SCT
08:19 9.4 °F 3.8 °F 1024.6 in WNW 35.2 mph 35.2 mph 68 % 0.0 in 83.0 W/m2 FEW
08:24 9.6 °F 3.9 °F 1024.6 in West 33.3 mph 33.3 mph 68 % 0.0 in 91.0 W/m2 CLR
08:29 9.7 °F 3.9 °F 1024.6 in WNW 33.3 mph 33.3 mph 67 % 0.0 in 121.0 W/m2 CLR
08:34 9.9 °F 4.1 °F 1024.6 in WNW 38.9 mph 38.9 mph 67 % 0.0 in 148.0 W/m2 CLR
08:39 10.1 °F 4.0 °F 1024.6 in NW 42.6 mph 42.6 mph 66 % 0.0 in 162.0 W/m2 CLR
08:44 10.2 °F 4.2 °F 1024.6 in WNW 40.7 mph 40.7 mph 66 % 0.0 in 185.0 W/m2 CLR
08:49 10.3 °F 4.2 °F 1024.6 in NW 38.9 mph 38.9 mph 66 % 0.0 in 192.0 W/m2 CLR
08:54 10.4 °F 4.3 °F 1024.9 in NW 27.8 mph 27.8 mph 66 % 0.0 in 206.0 W/m2 CLR
08:59 10.6 °F 4.2 °F 1024.9 in WNW 35.2 mph 35.2 mph 65 % 0.0 in 229.0 W/m2 CLR
09:04 10.7 °F 4.3 °F 1024.9 in WNW 35.2 mph 35.2 mph 65 % 0.0 in 246.0 W/m2 CLR
09:09 10.9 °F 4.1 °F 1024.9 in WNW 35.2 mph 35.2 mph 63 % 0.0 in 264.0 W/m2 CLR
09:14 11.1 °F 4.3 °F 1024.6 in NW 35.4 mph 35.4 mph 63 % 0.0 in 278.0 W/m2 CLR
09:19 11.2 °F 4.2 °F 1024.9 in WNW 37.0 mph 37.0 mph 62 % 0.0 in 295.0 W/m2 CLR
09:24 11.3 °F 4.6 °F 1024.9 in NW 31.5 mph 31.5 mph 63 % 0.0 in 302.0 W/m2 CLR
09:29 11.4 °F 4.2 °F 1024.9 in NW 37.0 mph 37.0 mph 61 % 0.0 in 315.0 W/m2 CLR
09:34 11.6 °F 4.3 °F 1024.9 in WNW 27.8 mph 27.8 mph 61 % 0.0 in 330.0 W/m2 CLR
09:39 11.7 °F 4.2 °F 1024.9 in NW 37.0 mph 37.0 mph 60 % 0.0 in 346.0 W/m2 CLR
09:44 11.7 °F 4.2 °F 1024.9 in NW 42.6 mph 42.6 mph 60 % 0.0 in 360.0 W/m2 CLR
09:49 11.9 °F 4.4 °F 1024.6 in NW 31.5 mph 31.5 mph 60 % 0.0 in 374.0 W/m2 CLR
09:54 12.1 °F 4.3 °F 1024.6 in WNW 37.0 mph 37.0 mph 59 % 0.0 in 388.0 W/m2 CLR
09:59 12.1 °F 4.3 °F 1024.3 in NW 46.3 mph 46.3 mph 59 % 0.0 in 399.0 W/m2 CLR
10:04 12.1 °F 4.6 °F 1024.3 in NW 40.7 mph 40.7 mph 60 % 0.0 in 417.0 W/m2 CLR
10:09 12.2 °F 4.7 °F 1024.3 in NW 38.9 mph 38.9 mph 60 % 0.0 in 431.0 W/m2 CLR
10:14 12.5 °F 4.9 °F 1024.3 in WNW 32.2 mph 32.2 mph 60 % 0.0 in 441.0 W/m2 CLR
10:19 12.6 °F 4.8 °F 1024.3 in WNW 40.7 mph 40.7 mph 59 % 0.0 in 457.0 W/m2 CLR
10:24 12.6 °F 4.8 °F 1024.3 in NW 31.5 mph 31.5 mph 59 % 0.0 in 469.0 W/m2 CLR
10:29 12.9 °F 5.1 °F 1024.3 in NNW 29.6 mph 29.6 mph 59 % 0.0 in 482.0 W/m2 CLR
10:34 13.1 °F 5.0 °F 1024.3 in NW 46.3 mph 46.3 mph 58 % 0.0 in 494.0 W/m2 CLR
10:39 13.2 °F 4.6 °F 1023.9 in NW 46.3 mph 46.3 mph 56 % 0.0 in 508.0 W/m2 CLR
10:44 13.4 °F 4.6 °F 1023.9 in NW 51.8 mph 51.8 mph 55 % 0.0 in 519.0 W/m2 CLR
10:49 13.7 °F 5.1 °F 1023.6 in NW 44.4 mph 44.4 mph 56 % 0.0 in 531.0 W/m2 CLR
10:54 13.9 °F 5.2 °F 1023.6 in NNW 46.3 mph 46.3 mph 56 % 0.0 in 541.0 W/m2 CLR
10:59 14.0 °F 5.3 °F 1023.6 in NW 44.4 mph 44.4 mph 56 % 0.0 in 559.0 W/m2 CLR
11:04 14.1 °F 5.2 °F 1023.6 in NW 48.1 mph 48.1 mph 55 % 0.0 in 561.0 W/m2 CLR
11:09 14.3 °F 5.6 °F 1023.6 in WNW 35.2 mph 35.2 mph 56 % 0.0 in 564.0 W/m2 CLR
11:15 14.3 °F 5.4 °F 1023.6 in NW 50.0 mph 50.0 mph 55 % 0.0 in 541.0 W/m2 CLR
11:20 14.5 °F 5.6 °F 1023.6 in NW 42.6 mph 42.6 mph 55 % 0.0 in 603.0 W/m2 CLR
11:25 14.7 °F 5.4 °F 1023.6 in NNW 44.4 mph 44.4 mph 54 % 0.0 in 613.0 W/m2 CLR
11:30 14.8 °F 5.6 °F 1023.2 in WNW 42.6 mph 42.6 mph 54 % 0.0 in 608.0 W/m2 CLR
11:35 15.1 °F 5.6 °F 1023.2 in NNW 44.4 mph 44.4 mph 53 % 0.0 in 619.0 W/m2 CLR
11:40 15.2 °F 5.7 °F 1023.2 in NNW 38.9 mph 38.9 mph 53 % 0.0 in 564.0 W/m2 CLR
11:45 15.1 °F 5.9 °F 1023.2 in WNW 46.7 mph 46.7 mph 54 % 0.0 in 633.0 W/m2 CLR
11:50 15.1 °F 5.3 °F 1023.6 in NW 51.8 mph 51.8 mph 52 % 0.0 in 636.0 W/m2 CLR
11:55 15.2 °F 5.7 °F 1023.6 in NNW 55.5 mph 55.5 mph 53 % 0.0 in 643.0 W/m2 CLR
12:00 15.2 °F 5.7 °F 1023.6 in NW 50.0 mph 50.0 mph 53 % 0.0 in 645.0 W/m2 CLR
12:05 15.5 °F 6.2 °F 1023.6 in WNW 42.6 mph 42.6 mph 54 % 0.0 in 654.0 W/m2 CLR
12:10 15.4 °F 6.1 °F 1023.6 in NW 48.1 mph 48.1 mph 54 % 0.0 in 663.0 W/m2 CLR
12:15 15.6 °F 6.3 °F 1023.9 in NNW 48.1 mph 48.1 mph 54 % 0.0 in 664.0 W/m2 CLR
12:20 15.6 °F 6.3 °F 1023.2 in WNW 44.4 mph 44.4 mph 54 % 0.0 in 670.0 W/m2 CLR
12:25 16.0 °F 6.7 °F 1023.2 in NNW 35.2 mph 35.2 mph 54 % 0.0 in 675.0 W/m2 CLR
12:30 16.2 °F 7.1 °F 1023.6 in NW 41.8 mph 41.8 mph 55 % 0.0 in 679.0 W/m2 CLR
12:35 16.3 °F 7.0 °F 1023.2 in West 42.6 mph 42.6 mph 54 % 0.0 in 684.0 W/m2 CLR
12:40 16.6 °F 7.3 °F 1022.9 in NW 37.0 mph 37.0 mph 54 % 0.0 in 687.0 W/m2 CLR
12:45 16.8 °F 7.4 °F 1023.2 in NNW 44.4 mph 44.4 mph 54 % 0.0 in 687.0 W/m2 CLR
12:50 16.8 °F 7.7 °F 1023.2 in NW 40.7 mph 40.7 mph 55 % 0.0 in 689.0 W/m2 CLR
12:55 16.8 °F 7.9 °F 1023.6 in NW 48.3 mph 48.3 mph 56 % 0.0 in 693.0 W/m2 CLR
13:00 16.8 °F 7.7 °F 1023.2 in NNW 46.7 mph 46.7 mph 55 % 0.0 in 689.0 W/m2 CLR
13:05 16.5 °F 7.7 °F 1023.6 in NNW 72.2 mph 72.2 mph 56 % 0.0 in 687.0 W/m2 CLR
13:10 16.6 °F 7.7 °F 1023.2 in NNW 38.9 mph 38.9 mph 56 % 0.0 in 689.0 W/m2 CLR
13:15 16.8 °F 8.0 °F 1023.2 in NNW 46.3 mph 46.3 mph 56 % 0.0 in 693.0 W/m2 CLR
13:20 16.8 °F 7.7 °F 1023.2 in NNW 51.8 mph 51.8 mph 55 % 0.0 in 693.0 W/m2 CLR
13:25 16.7 °F 7.6 °F 1023.2 in NW 40.2 mph 40.2 mph 55 % 0.0 in 708.0 W/m2 CLR
13:30 16.9 °F 7.8 °F 1023.2 in NW 50.0 mph 50.0 mph 55 % 0.0 in 689.0 W/m2 CLR
13:35 16.9 °F 8.1 °F 1022.9 in NW 46.3 mph 46.3 mph 56 % 0.0 in 691.0 W/m2 CLR
13:40 17.0 °F 7.9 °F 1023.2 in NW 42.6 mph 42.6 mph 55 % 0.0 in 689.0 W/m2 CLR
13:45 17.2 °F 8.1 °F 1022.9 in WNW 29.6 mph 29.6 mph 55 % 0.0 in 684.0 W/m2 CLR
13:50 17.6 °F 8.4 °F 1022.9 in NW 27.8 mph 27.8 mph 55 % 0.0 in 682.0 W/m2 CLR
13:55 17.6 °F 8.4 °F 1022.9 in NNW 29.6 mph 29.6 mph 55 % 0.0 in 679.0 W/m2 CLR
14:00 17.7 °F 8.2 °F 1022.6 in NNW 53.7 mph 53.7 mph 54 % 0.0 in 673.0 W/m2 CLR
14:05 17.7 °F 8.2 °F 1022.9 in NNW 55.5 mph 55.5 mph 54 % 0.0 in 668.0 W/m2 CLR
14:10 17.4 °F 8.6 °F 1022.6 in NW 51.8 mph 51.8 mph 56 % 0.0 in 668.0 W/m2 CLR
14:15 17.4 °F 8.3 °F 1022.6 in NNW 46.3 mph 46.3 mph 55 % 0.0 in 650.0 W/m2 CLR
14:20 17.4 °F 8.3 °F 1022.6 in NNW 51.8 mph 51.8 mph 55 % 0.0 in 659.0 W/m2 CLR
14:25 17.4 °F 8.3 °F 1022.6 in NNW 55.5 mph 55.5 mph 55 % 0.0 in 647.0 W/m2 CLR
14:30 17.4 °F 8.5 °F 1022.6 in NW 48.3 mph 48.3 mph 56 % 0.0 in 649.0 W/m2 CLR
14:35 17.3 °F 8.4 °F 1022.9 in NNW 42.6 mph 42.6 mph 56 % 0.0 in 636.0 W/m2 CLR
14:40 17.7 °F 8.5 °F 1022.6 in NW 42.6 mph 42.6 mph 55 % 0.0 in 633.0 W/m2 CLR
14:45 17.6 °F 8.4 °F 1022.6 in NNW 48.1 mph 48.1 mph 55 % 0.0 in 628.0 W/m2 CLR
14:50 17.5 °F 8.3 °F 1022.6 in NNW 59.5 mph 59.5 mph 55 % 0.0 in 624.0 W/m2 CLR
14:55 17.6 °F 8.4 °F 1022.2 in NW 53.1 mph 53.1 mph 55 % 0.0 in 621.0 W/m2 CLR
15:00 17.6 °F 8.7 °F 1022.6 in NNW 40.7 mph 40.7 mph 56 % 0.0 in 617.0 W/m2 CLR
15:05 17.8 °F 8.7 °F 1022.2 in NNW 46.7 mph 46.7 mph 55 % 0.0 in 626.0 W/m2 CLR
15:10 17.8 °F 8.6 °F 1022.2 in North 42.6 mph 42.6 mph 55 % 0.0 in 650.0 W/m2 CLR
15:15 18.0 °F 9.1 °F 1022.2 in North 35.4 mph 35.4 mph 56 % 0.0 in 603.0 W/m2 CLR
15:20 18.2 °F 9.0 °F 1022.2 in North 43.4 mph 43.4 mph 55 % 0.0 in 594.0 W/m2 CLR
15:25 18.2 °F 9.0 °F 1022.2 in NW 48.1 mph 48.1 mph 55 % 0.0 in 592.0 W/m2 CLR
15:30 18.2 °F 9.0 °F 1022.2 in North 44.4 mph 44.4 mph 55 % 0.0 in 575.0 W/m2 CLR
15:35 18.1 °F 8.9 °F 1021.9 in NW 48.1 mph 48.1 mph 55 % 0.0 in 693.0 W/m2 CLR
15:40 18.1 °F 9.2 °F 1021.9 in NNW 46.3 mph 46.3 mph 56 % 0.0 in 680.0 W/m2 CLR
15:45 18.1 °F 8.9 °F 1022.2 in NNW 42.6 mph 42.6 mph 55 % 0.0 in 680.0 W/m2 CLR
15:50 18.1 °F 8.6 °F 1022.2 in NNW 59.5 mph 59.5 mph 54 % 0.0 in 248.0 W/m2 CLR
15:55 17.5 °F 8.3 °F 1022.2 in NW 53.7 mph 53.7 mph 55 % 0.0 in 130.0 W/m2 CLR
16:00 17.4 °F 8.5 °F 1021.9 in NW 37.0 mph 37.0 mph 56 % 0.0 in 130.0 W/m2 CLR
16:05 17.7 °F 8.8 °F 1021.9 in NW 51.5 mph 51.5 mph 56 % 0.0 in 455.0 W/m2 CLR
16:10 18.0 °F 8.6 °F 1021.9 in NW 50.0 mph 50.0 mph 54 % 0.0 in 432.0 W/m2 CLR
16:15 18.1 °F 8.4 °F 1021.9 in NNW 55.5 mph 55.5 mph 53 % 0.0 in 420.0 W/m2 CLR
16:20 18.3 °F 8.3 °F 1021.9 in NNW 50.0 mph 50.0 mph 52 % 0.0 in 399.0 W/m2 CLR
16:25 18.3 °F 8.6 °F 1022.6 in NW 38.9 mph 38.9 mph 53 % 0.0 in 387.0 W/m2 CLR
16:30 18.3 °F 8.6 °F 1022.2 in NW 50.0 mph 50.0 mph 53 % 0.0 in 404.0 W/m2 CLR
16:36 18.3 °F 8.6 °F 1022.6 in NNW 38.9 mph 38.9 mph 53 % 0.0 in 381.0 W/m2 CLR
16:41 18.3 °F 8.6 °F 1022.6 in WNW 37.0 mph 37.0 mph 53 % 0.0 in 425.0 W/m2 CLR
16:46 18.4 °F 8.3 °F 1022.2 in WNW 53.7 mph 53.7 mph 52 % 0.0 in 434.0 W/m2 CLR
16:51 18.4 °F 8.3 °F 1022.2 in NNW 51.8 mph 51.8 mph 52 % 0.0 in 394.0 W/m2 CLR
16:56 18.4 °F 8.6 °F 1022.2 in NW 29.6 mph 29.6 mph 53 % 0.0 in 352.0 W/m2 CLR
17:01 18.5 °F 8.7 °F 1022.2 in NW 18.5 mph 18.5 mph 53 % 0.0 in 302.0 W/m2 CLR
17:06 18.4 °F 8.7 °F 1022.2 in NW 40.2 mph 40.2 mph 53 % 0.0 in 302.0 W/m2 CLR
17:11 18.5 °F 8.4 °F 1022.2 in NNW 31.5 mph 31.5 mph 52 % 0.0 in 308.0 W/m2 CLR
17:16 18.4 °F 8.3 °F 1022.2 in NW 46.3 mph 46.3 mph 52 % 0.0 in 294.0 W/m2 CLR
17:21 18.3 °F 8.3 °F 1022.2 in West 35.2 mph 35.2 mph 52 % 0.0 in 283.0 W/m2 CLR
17:26 18.3 °F 8.2 °F 1022.2 in NNW 50.0 mph 50.0 mph 52 % 0.0 in 230.0 W/m2 CLR
17:31 18.2 °F 8.2 °F 1022.2 in NNW 37.0 mph 37.0 mph 52 % 0.0 in 195.0 W/m2 CLR
17:36 18.1 °F 8.1 °F 1022.6 in NW 37.0 mph 37.0 mph 52 % 0.0 in 123.0 W/m2 CLR
17:41 17.9 °F 8.2 °F 1022.2 in NNW 40.2 mph 40.2 mph 53 % 0.0 in 98.0 W/m2 CLR
17:46 17.8 °F 8.1 °F 1022.2 in NNW 40.7 mph 40.7 mph 53 % 0.0 in 98.0 W/m2 CLR
17:51 17.6 °F 7.6 °F 1022.6 in NNW 37.0 mph 37.0 mph 52 % 0.0 in 53.0 W/m2 FEW
17:56 17.3 °F 7.7 °F 1022.6 in NW 40.7 mph 40.7 mph 53 % 0.0 in 44.0 W/m2 SCT
18:01 17.2 °F 7.8 °F 1022.6 in NW 44.4 mph 44.4 mph 54 % 0.0 in 46.0 W/m2 SCT
18:06 17.1 °F 7.9 °F 1022.6 in NNW 35.2 mph 35.2 mph 55 % 0.0 in 46.0 W/m2 SCT
18:11 17.0 °F 8.2 °F 1022.6 in WNW 31.5 mph 31.5 mph 56 % 0.0 in 49.0 W/m2 SCT
18:16 16.9 °F 8.1 °F 1022.6 in NNW 40.7 mph 40.7 mph 56 % 0.0 in 47.0 W/m2 SCT
18:21 16.9 °F 8.1 °F 1022.6 in NNW 46.3 mph 46.3 mph 56 % 0.0 in 42.0 W/m2 BKN
18:26 16.9 °F 8.1 °F 1022.6 in NNW 35.2 mph 35.2 mph 56 % 0.0 in 40.0 W/m2 BKN
18:31 16.8 °F 8.0 °F 1022.6 in NW 43.4 mph 43.4 mph 56 % 0.0 in 32.0 W/m2 BKN
18:36 16.8 °F 7.7 °F 1022.6 in NNW 42.6 mph 42.6 mph 55 % 0.0 in 25.0 W/m2 BKN
18:41 16.7 °F 7.9 °F 1022.6 in NNW 38.9 mph 38.9 mph 56 % 0.0 in 18.0 W/m2 BKN
18:46 16.7 °F 7.8 °F 1022.6 in NNW 40.7 mph 40.7 mph 56 % 0.0 in 12.0 W/m2 BKN
18:51 16.6 °F 7.8 °F 1022.6 in NNW 33.3 mph 33.3 mph 56 % 0.0 in 7.0 W/m2 BKN
18:56 16.5 °F 7.9 °F 1022.6 in NW 35.2 mph 35.2 mph 57 % 0.0 in 0.0 W/m2 OVC
19:01 16.4 °F 7.8 °F 1022.9 in NNW 38.9 mph 38.9 mph 57 % 0.0 in 0.0 W/m2 CLR
19:06 16.3 °F 7.8 °F 1022.9 in NNW 27.8 mph 27.8 mph 57 % 0.0 in 0.0 W/m2 CLR
19:11 16.2 °F 7.7 °F 1023.2 in North 33.3 mph 33.3 mph 57 % 0.0 in 0.0 W/m2 CLR
19:16 16.2 °F 7.9 °F 1023.2 in NW 27.8 mph 27.8 mph 58 % 0.0 in 0.0 W/m2 CLR
19:21 16.1 °F 7.8 °F 1022.9 in NW 29.6 mph 29.6 mph 58 % 0.0 in 0.0 W/m2 CLR
19:26 16.1 °F 8.1 °F 1023.2 in NW 35.2 mph 35.2 mph 59 % 0.0 in 0.0 W/m2 CLR
19:31 16.0 °F 8.0 °F 1023.2 in NNW 38.9 mph 38.9 mph 59 % 0.0 in 0.0 W/m2 CLR
19:36 15.9 °F 8.1 °F 1023.2 in NW 33.3 mph 33.3 mph 60 % 0.0 in 0.0 W/m2 CLR
19:41 15.9 °F 8.1 °F 1023.2 in NW 40.7 mph 40.7 mph 60 % 0.0 in 0.0 W/m2 CLR
19:46 15.8 °F 8.3 °F 1023.2 in NW 37.0 mph 37.0 mph 61 % 0.0 in 0.0 W/m2 CLR
19:51 15.7 °F 8.2 °F 1023.6 in NW 38.9 mph 38.9 mph 61 % 0.0 in 0.0 W/m2 CLR
20:01 15.6 °F 8.6 °F 1023.6 in NNW 45.1 mph 45.1 mph 63 % 0.0 in 0.0 W/m2 CLR
20:06 15.5 °F 8.5 °F 1023.6 in NNW 33.3 mph 33.3 mph 63 % 0.0 in 0.0 W/m2 CLR
20:11 15.4 °F 8.7 °F 1023.6 in NW 40.7 mph 40.7 mph 64 % 0.0 in 0.0 W/m2 CLR
20:16 15.5 °F 8.7 °F 1023.6 in NW 40.7 mph 40.7 mph 64 % 0.0 in 0.0 W/m2 CLR
20:21 15.4 °F 8.6 °F 1023.2 in NW 33.8 mph 33.8 mph 64 % 0.0 in 0.0 W/m2 CLR
20:26 15.3 °F 8.8 °F 1023.2 in NW 40.7 mph 40.7 mph 65 % 0.0 in 0.0 W/m2 CLR
20:31 15.3 °F 8.7 °F 1023.2 in NW 50.0 mph 50.0 mph 65 % 0.0 in 0.0 W/m2 CLR
20:36 15.3 °F 8.8 °F 1023.2 in NW 48.1 mph 48.1 mph 65 % 0.0 in 0.0 W/m2 CLR
20:41 15.3 °F 8.8 °F 1023.2 in NW 38.9 mph 38.9 mph 65 % 0.0 in 0.0 W/m2 CLR
20:46 15.3 °F 8.7 °F 1023.2 in NW 48.1 mph 48.1 mph 65 % 0.0 in 0.0 W/m2 CLR
20:51 15.3 °F 8.8 °F 1023.2 in NW 46.3 mph 46.3 mph 65 % 0.0 in 0.0 W/m2 CLR
20:56 15.3 °F 8.8 °F 1022.9 in WNW 53.7 mph 53.7 mph 65 % 0.0 in 0.0 W/m2 CLR
21:01 15.3 °F 8.7 °F 1023.2 in NW 37.0 mph 37.0 mph 65 % 0.0 in 0.0 W/m2 CLR
21:06 15.2 °F 8.9 °F 1023.2 in NNW 44.4 mph 44.4 mph 66 % 0.0 in 0.0 W/m2 CLR
21:11 15.2 °F 8.8 °F 1023.2 in WNW 37.0 mph 37.0 mph 66 % 0.0 in 0.0 W/m2 CLR
21:16 15.1 °F 8.8 °F 1023.6 in NW 37.0 mph 37.0 mph 66 % 0.0 in 0.0 W/m2 CLR
21:21 15.1 °F 8.8 °F 1023.6 in NNW 37.0 mph 37.0 mph 66 % 0.0 in 0.0 W/m2 CLR
21:26 15.0 °F 8.7 °F 1023.6 in NW 31.5 mph 31.5 mph 66 % 0.0 in 0.0 W/m2 CLR
21:31 15.0 °F 8.9 °F 1023.2 in NNW 42.6 mph 42.6 mph 67 % 0.0 in 0.0 W/m2 CLR
21:36 15.0 °F 8.7 °F 1023.2 in NW 50.0 mph 50.0 mph 66 % 0.0 in 0.0 W/m2 CLR
21:41 14.9 °F 8.8 °F 1023.2 in WNW 31.5 mph 31.5 mph 67 % 0.0 in 0.0 W/m2 CLR
21:46 14.8 °F 8.8 °F 1023.2 in West 35.2 mph 35.2 mph 67 % 0.0 in 0.0 W/m2 CLR
21:51 14.8 °F 8.9 °F 1023.2 in NW 48.1 mph 48.1 mph 68 % 0.0 in 0.0 W/m2 CLR
21:56 14.8 °F 8.9 °F 1023.2 in NW 46.7 mph 46.7 mph 68 % 0.0 in 0.0 W/m2 CLR
22:01 14.8 °F 8.9 °F 1023.2 in NW 40.7 mph 40.7 mph 68 % 0.0 in 0.0 W/m2 CLR
22:06 14.7 °F 8.9 °F 1023.2 in WNW 55.5 mph 55.5 mph 68 % 0.0 in 0.0 W/m2 CLR
22:11 14.8 °F 8.9 °F 1023.2 in WNW 55.5 mph 55.5 mph 68 % 0.0 in 0.0 W/m2 CLR
22:16 14.8 °F 8.9 °F 1023.2 in NW 61.1 mph 61.1 mph 68 % 0.0 in 0.0 W/m2 CLR
22:21 14.7 °F 8.9 °F 1023.2 in NW 48.1 mph 48.1 mph 68 % 0.0 in 0.0 W/m2 CLR
22:26 14.7 °F 8.9 °F 1023.6 in NW 40.7 mph 40.7 mph 68 % 0.0 in 0.0 W/m2 CLR
22:31 14.7 °F 8.8 °F 1023.6 in WNW 46.3 mph 46.3 mph 68 % 0.0 in 0.0 W/m2 CLR
22:36 14.6 °F 8.8 °F 1023.6 in WNW 46.3 mph 46.3 mph 68 % 0.0 in 0.0 W/m2 CLR
22:41 14.6 °F 8.8 °F 1023.6 in NW 48.1 mph 48.1 mph 68 % 0.0 in 0.0 W/m2 CLR
22:46 14.5 °F 8.9 °F 1023.6 in WNW 40.7 mph 40.7 mph 69 % 0.0 in 0.0 W/m2 CLR
22:51 14.4 °F 8.8 °F 1023.6 in NW 61.1 mph 61.1 mph 69 % 0.0 in 0.0 W/m2 CLR
22:56 14.4 °F 9.0 °F 1023.9 in NW 44.4 mph 44.4 mph 70 % 0.0 in 0.0 W/m2 CLR
23:01 14.3 °F 8.9 °F 1023.9 in NW 40.7 mph 40.7 mph 70 % 0.0 in 0.0 W/m2 CLR
23:06 14.3 °F 8.9 °F 1023.9 in WNW 38.9 mph 38.9 mph 70 % 0.0 in 0.0 W/m2 CLR
23:11 14.3 °F 8.9 °F 1023.9 in NW 46.7 mph 46.7 mph 70 % 0.0 in 0.0 W/m2 CLR
23:16 14.2 °F 8.8 °F 1023.9 in NW 38.9 mph 38.9 mph 70 % 0.0 in 0.0 W/m2 CLR
23:21 14.2 °F 9.0 °F 1023.9 in NW 50.0 mph 50.0 mph 71 % 0.0 in 0.0 W/m2 CLR
23:26 14.2 °F 9.0 °F 1023.9 in NW 46.3 mph 46.3 mph 71 % 0.0 in 0.0 W/m2 CLR
23:31 14.1 °F 8.9 °F 1023.6 in NW 38.9 mph 38.9 mph 71 % 0.0 in 0.0 W/m2 CLR
23:36 14.2 °F 9.0 °F 1023.6 in NW 49.9 mph 49.9 mph 71 % 0.0 in 0.0 W/m2 CLR
23:41 14.2 °F 9.0 °F 1023.6 in NW 61.1 mph 61.1 mph 71 % 0.0 in 0.0 W/m2 CLR
23:46 14.2 °F 9.0 °F 1023.6 in NNW 51.5 mph 51.5 mph 71 % 0.0 in 0.0 W/m2 CLR
23:51 14.1 °F 8.9 °F 1023.6 in WNW 44.4 mph 44.4 mph 71 % 0.0 in 0.0 W/m2 CLR
23:57 14.1 °F 8.9 °F 1023.6 in NW 61.1 mph 61.1 mph 71 % 0.0 in 0.0 W/m2
Lo Temps de Massalio
Compliments of Weather Underground - 1.25 mb